Latest Coastal Weather Observations for Low Rocky Point

IDT60701

Issued at 4:11 pm EST Wednesday 4 May 2016 (issued every 10 minutes, with the page automatically refreshed every 10 minutes)

About coastal observations | Map of coastal stations | Coastal observations for TAS | Marine services | Other Formats
Station Details ID: 097080 Name: LOW ROCKY POINT Lat: -42.98 Lon: 145.50 Height: 34.0 m
Data from the previous 72 hours. | See also: Recent months at Low Rocky Point
Date/Time
EST
Temp

°C
Wind Pressure Rain
since 9am
mm
Weather Cloud Vis
km
Sea
Height
m
Swell
Dir
 
Speed
knots
Gust
knots
hPa Trend Height
m
Period
s
Dir
04/04:00pm 13.2 NW 36 45 1003.9 - 0.4 - - - - - - -
04/03:41pm 12.9 NW 35 48 1003.8 - 0.2 - - - - - - -
04/03:30pm 13.3 NW 34 42 1003.7 - 0.2 - - - - - - -
04/03:00pm 13.5 NW 35 45 1003.9 - 0.2 - - - - - - -
04/02:30pm 13.2 NW 37 48 1004.1 - 0.2 - - - - - - -
04/02:11pm 13.0 NW 31 43 1004.1 - 0.2 - - - - - - -
04/02:00pm 12.7 NW 33 41 1004.3 - 0.2 - - - - - - -
04/01:31pm 12.6 NW 33 43 1004.4 - 0.2 - - - - - - -
04/01:30pm 12.2 NW 34 43 1004.4 - 0.2 - - - - - - -
04/01:07pm 13.1 NW 29 40 1004.6 - 0.2 - - - - - - -
04/01:00pm 13.0 NW 30 38 1004.7 - 0.2 - - - - - - -
04/12:30pm 12.6 NW 29 38 1004.9 - 0.2 - - - - - - -
04/12:29pm 12.7 NW 28 38 1005.0 - 0.2 - - - - - - -
04/12:00pm 13.3 NW 29 36 1005.4 - 0.2 - - - - - - -
04/11:30am 12.9 NW 27 35 1005.7 - 0.2 - - - - - - -
04/11:00am 12.1 NW 27 32 1005.7 - 0.2 Recent precip. - - - - - -
04/10:30am 10.5 NW 27 39 1005.7 - 0.2 - - - - - - -
04/10:06am 12.2 NW 27 37 1005.4 - 0.0 - - - - - - -
04/10:00am 12.5 NW 27 34 1005.4 - 0.0 - - - - - - -
04/09:46am 11.5 NW 26 36 1005.5 - 0.0 - - - - - - -
04/09:30am 12.1 NW 26 34 1005.4 - 0.0 - - - - - - -
04/09:00am 11.1 WNW 26 32 1005.1 - 10.6 - - - - - - -
04/08:44am 10.8 WNW 25 41 1005.0 - 10.6 - - - - - - -
04/08:30am 11.0 WNW 24 31 1005.0 - 10.6 - - - - - - -
04/08:00am 9.7 WNW 23 29 1004.7 - 10.6 Recent precip. - - - - - -
04/07:54am 9.1 WNW 27 37 1004.5 - 10.6 - - - - - - -
04/07:30am 10.4 WNW 26 33 1003.8 - 10.4 - - - - - - -
04/07:00am 9.2 WNW 27 36 1003.3 - 10.4 Rain - - - - - -
04/06:59am 8.9 WNW 27 36 1003.4 - 10.4 - - - - - - -
04/06:54am 8.8 W 27 36 1003.2 - 10.4 - - - - - - -
04/06:49am 9.0 W 27 37 1003.2 - 10.2 - - - - - - -
04/06:30am 10.5 WNW 25 30 1002.6 - 10.2 - - - - - - -
04/06:00am 10.8 WNW 30 37 1001.9 - 10.2 - - - - - - -
04/05:42am 10.0 WNW 32 42 1001.7 - 10.2 - - - - - - -
04/05:30am 10.9 WNW 33 41 1001.2 - 10.2 - - - - - - -
04/05:00am 10.5 WNW 33 40 1000.8 - 10.2 - - - - - - -
04/04:44am 10.5 WNW 34 44 1000.4 - 10.2 - - - - - - -
04/04:30am 10.2 WNW 37 44 1000.0 - 10.2 - - - - - - -
04/04:06am 9.6 W 33 43 999.4 - 10.2 - - - - - - -
04/04:00am 9.7 WNW 34 43 999.3 - 10.2 Recent precip. - - - - - -
04/03:39am 9.9 WNW 27 37 999.2 - 9.8 - - - - - - -
04/03:30am 9.4 WNW 26 31 999.0 - 9.8 - - - - - - -
04/03:18am 8.1 WNW 37 51 999.0 - 9.8 - - - - - - -
04/03:15am 8.7 WNW 39 51 999.1 - 9.8 - - - - - - -
04/03:11am 10.3 WNW 36 51 998.5 - 9.8 - - - - - - -
04/03:00am 10.7 WNW 32 43 998.5 - 9.8 Recent precip. - - - - - -
04/02:38am 10.6 WNW 29 39 998.1 - 9.8 - - - - - - -
04/02:30am 10.0 WNW 31 38 998.3 - 9.8 - - - - - - -
04/02:01am 8.4 WNW 33 46 998.0 - 9.6 - - - - - - -
04/02:00am 8.9 WNW 31 40 998.1 - 9.6 - - - - - - -
04/01:52am 9.6 WNW 28 38 998.1 - 9.6 - - - - - - -
04/01:30am 9.2 W 25 31 997.9 - 9.6 - - - - - - -
04/01:02am 7.9 W 33 49 997.9 - 9.6 - - - - - - -
04/01:00am 7.4 W 37 50 998.0 - 9.6 Rain - - - - - -
04/12:59am 7.3 W 38 52 998.0 - 9.6 - - - - - - -
04/12:52am 8.4 W 36 52 997.4 - 9.4 - - - - - - -
04/12:50am 8.9 WNW 34 52 997.2 - 9.4 - - - - - - -
04/12:46am 10.8 WNW 31 42 997.1 - 9.4 - - - - - - -
04/12:30am 10.5 WNW 31 37 997.0 - 9.4 - - - - - - -
04/12:00am 10.2 WNW 30 39 996.7 - 9.4 - - - - - - -
 
Date/Time
EST
Temp

°C
Wind Pressure Rain
since 9am
mm
Weather Cloud Vis
km
Sea
Height
m
Swell
Dir
 
Speed
knots
Gust
knots
hPa Trend Height
m
Period
s
Dir
03/11:30pm 9.9 WNW 31 39 995.8 - 9.4 - - - - - - -
03/11:00pm 9.2 WNW 32 41 995.3 - 9.4 Recent precip. - - - - - -
03/10:30pm 10.1 WNW 32 45 995.1 - 8.8 - - - - - - -
03/10:00pm 9.6 WNW 32 38 994.4 - 8.8 Recent precip. - - - - - -
03/09:48pm 10.0 WNW 28 39 994.5 - 8.8 - - - - - - -
03/09:42pm 9.4 WNW 22 32 994.6 - 8.8 - - - - - - -
03/09:30pm 7.8 NW 20 24 994.5 - 8.8 - - - - - - -
03/09:07pm 9.5 WNW 23 34 994.1 - 8.2 - - - - - - -
03/09:00pm 9.9 WNW 23 31 994.0 - 8.2 - - - - - - -
03/08:42pm 9.5 WNW 24 34 994.1 - 8.2 - - - - - - -
03/08:30pm 9.5 WNW 24 29 994.0 - 8.2 - - - - - - -
03/08:27pm 9.2 WNW 24 29 994.0 - 8.2 - - - - - - -
03/08:00pm 10.0 W 33 44 993.5 - 8.2 - - - - - - -
03/07:56pm 10.7 WNW 32 44 993.0 - 8.2 - - - - - - -
03/07:30pm 10.7 WNW 30 37 992.8 - 8.2 - - - - - - -
03/07:21pm 10.6 W 30 38 992.6 - 8.2 - - - - - - -
03/07:02pm 10.3 NW 31 41 992.2 - 8.2 - - - - - - -
03/07:00pm 10.3 WNW 32 41 992.1 - 8.2 Recent precip. - - - - - -
03/06:30pm 9.2 WNW 31 43 991.6 - 8.0 - - - - - - -
03/06:05pm 10.7 WNW 28 39 990.9 - 7.8 - - - - - - -
03/06:00pm 10.5 WNW 25 33 990.9 - 7.8 - - - - - - -
03/05:30pm 9.6 WNW 26 37 990.8 - 7.8 - - - - - - -
03/05:29pm 10.0 WNW 26 37 990.7 - 7.8 - - - - - - -
03/05:00pm 8.9 NW 29 41 989.8 - 7.8 Recent precip. - - - - - -
03/04:50pm 10.0 WNW 29 48 989.6 - 7.8 - - - - - - -
03/04:30pm 10.3 WNW 28 35 989.2 - 7.8 - - - - - - -
03/04:00pm 9.6 WNW 24 29 988.8 - 7.6 Recent precip. - - - - - -
03/03:39pm 9.1 WNW 26 36 988.9 - 7.6 - - - - - - -
03/03:30pm 9.3 WNW 30 36 988.9 - 7.4 - - - - - - -
03/03:00pm 9.3 WNW 32 44 988.1 - 7.4 Rain - - - - - -
03/02:52pm 8.9 WNW 34 50 987.8 - 7.0 - - - - - - -
03/02:50pm 8.6 WNW 33 50 987.8 - 6.8 - - - - - - -
03/02:48pm 8.6 WNW 33 50 987.8 - 6.4 - - - - - - -
03/02:46pm 9.8 NW 30 46 987.5 - 6.2 - - - - - - -
03/02:44pm 11.1 NW 27 39 987.4 - 6.0 - - - - - - -
03/02:30pm 10.9 NW 26 33 987.5 - 6.0 - - - - - - -
03/02:00pm 10.2 NW 25 32 987.5 - 6.0 Rain - - - - - -
03/01:44pm 9.8 WNW 25 35 987.7 - 5.8 - - - - - - -
03/01:30pm 9.7 WNW 29 33 988.0 - 5.8 - - - - - - -
03/01:00pm 11.1 NW 25 35 987.3 - 5.2 - - - - - - -
03/12:30pm 10.5 NW 24 31 987.8 - 5.2 - - - - - - -
03/12:17pm 9.7 NW 25 38 988.4 - 5.2 - - - - - - -
03/12:00pm 9.9 WNW 25 31 988.6 - 5.2 Recent precip. - - - - - -
03/11:35am 9.5 WNW 24 34 988.8 - 5.2 - - - - - - -
03/11:30am 9.2 WNW 23 29 988.7 - 5.2 - - - - - - -
03/11:00am 9.7 NW 25 31 988.5 - 3.8 Rain - - - - - -
03/10:30am 9.9 NW 27 36 988.8 - 3.0 - - - - - - -
03/10:00am 10.0 WNW 27 34 988.1 - 2.6 Rain - - - - - -
03/09:33am 10.3 WNW 23 33 987.7 - 2.0 - - - - - - -
03/09:30am 10.1 WNW 22 28 988.0 - 1.8 - - - - - - -
03/09:00am 10.1 WNW 24 35 987.6 - 36.4 Rain - - - - - -
03/08:41am 10.1 WNW 25 36 987.5 - 33.8 - - - - - - -
03/08:30am 11.3 NW 25 33 987.4 - 31.0 - - - - - - -
03/08:29am 11.5 NW 25 33 987.5 - 31.0 - - - - - - -
03/08:00am 12.5 NW 27 33 987.6 - 31.0 - - - - - - -
03/07:30am 12.1 NW 27 34 987.2 - 31.0 - - - - - - -
03/07:00am 11.8 WNW 32 44 987.2 - 31.0 - - - - - - -
03/06:50am 11.8 WNW 35 46 987.3 - 31.0 - - - - - - -
03/06:30am 11.6 WNW 35 42 987.5 - 31.0 - - - - - - -
03/06:12am 11.5 WNW 35 45 987.3 - 31.0 - - - - - - -
03/06:00am 11.0 WNW 35 44 987.2 - 31.0 Rain - - - - - -
03/05:54am 11.4 NW 37 45 987.4 - 30.2 - - - - - - -
03/05:30am 13.0 NW 37 48 986.4 - 30.0 - - - - - - -
03/05:00am 12.6 NW 35 46 985.7 - 29.6 Recent precip. - - - - - -
03/04:58am 12.7 NW 35 46 985.9 - 29.6 - - - - - - -
03/04:30am 12.6 NW 31 37 985.7 - 29.2 - - - - - - -
03/04:17am 12.3 NW 33 43 985.8 - 29.0 - - - - - - -
03/04:00am 12.9 NW 34 42 986.2 - 28.4 Rain - - - - - -
03/03:34am 12.7 NW 35 45 986.7 - 28.2 - - - - - - -
03/03:30am 12.8 NW 37 46 986.8 - 28.0 - - - - - - -
03/03:15am 12.8 NW 35 46 987.1 - 27.4 - - - - - - -
03/03:00am 12.9 NW 34 43 986.9 - 27.2 Recent precip. - - - - - -
03/02:30am 12.7 NW 33 43 988.0 - 26.8 - - - - - - -
03/02:02am 12.8 NW 28 38 988.2 - 26.6 - - - - - - -
03/02:00am 12.8 NW 28 36 988.1 - 26.4 Recent precip. - - - - - -
03/01:30am 12.1 NW 32 39 988.7 - 25.8 - - - - - - -
03/01:00am 12.4 NW 31 44 989.1 - 25.2 Rain - - - - - -
03/12:30am 12.3 WNW 36 48 988.9 - 24.8 - - - - - - -
03/12:01am 12.6 WNW 32 43 988.9 - 24.4 - - - - - - -
03/12:00am 12.7 WNW 32 39 988.8 - 24.4 Rain - - - - - -
 
Date/Time
EST
Temp

°C
Wind Pressure Rain
since 9am
mm
Weather Cloud Vis
km
Sea
Height
m
Swell
Dir
 
Speed
knots
Gust
knots
hPa Trend Height
m
Period
s
Dir
02/11:40pm 12.5 NW 31 41 988.9 - 23.2 - - - - - - -
02/11:30pm 12.2 NW 36 46 988.5 - 21.8 - - - - - - -
02/11:00pm 14.5 NW 46 60 988.6 - 9.4 Rain - - - - - -
02/10:57pm 14.5 NW 46 60 988.1 - 8.8 - - - - - - -
02/10:56pm 14.5 NW 46 60 987.8 - 8.8 - - - - - - -
02/10:30pm 14.1 NNW 40 54 987.9 - 5.6 - - - - - - -
02/10:00pm 13.7 NNW 36 51 988.1 - 4.6 Rain - - - - - -
02/09:45pm 14.1 NNW 38 57 988.3 - 4.0 - - - - - - -
02/09:30pm 13.6 NNW 31 47 988.8 - 3.8 - - - - - - -
02/09:00pm 13.9 NNW 36 53 989.2 - 1.2 Rain - - - - - -
02/08:30pm 14.4 NNW 32 53 990.0 - 0.8 - - - - - - -
02/08:27pm 14.5 NNW 32 53 990.1 - 0.8 - - - - - - -
02/08:25pm 14.3 NNW 33 50 990.1 - 0.8 - - - - - - -
02/08:24pm 14.3 NNW 33 50 990.2 - 0.8 - - - - - - -
02/08:00pm 14.2 NNW 39 53 990.5 - 0.8 Recent precip. - - - - - -
02/07:49pm 14.2 NNW 42 62 990.8 - 0.8 - - - - - - -
02/07:30pm 15.3 NNW 38 51 991.2 - 0.4 - - - - - - -
02/07:00pm 15.5 NNW 37 55 991.7 - 0.4 Recent precip. - - - - - -
02/06:30pm 15.4 NNW 42 55 992.4 - 0.4 - - - - - - -
02/06:00pm 15.2 NNW 40 53 992.7 - 0.2 - - - - - - -
02/05:30pm 14.3 NNW 41 56 992.7 - 0.2 - - - - - - -
02/05:00pm 15.2 NNW 42 58 992.7 - 0.2 - - - - - - -
02/04:30pm 14.5 NNW 42 54 993.0 - 0.2 - - - - - - -
02/04:00pm 14.8 NNW 46 58 993.6 - 0.2 - - - - - - -
02/03:30pm 15.2 NNW 41 54 993.9 - 0.2 - - - - - - -
02/03:00pm 14.9 NNW 37 48 994.4 - 0.2 - - - - - - -
02/02:30pm 14.7 NNW 40 51 994.8 - 0.2 - - - - - - -
02/02:00pm 15.0 NNW 37 49 995.5 - 0.2 - - - - - - -
02/01:32pm 15.4 NNW 37 47 995.8 - 0.2 - - - - - - -
02/01:30pm 15.4 NNW 38 47 995.8 - 0.2 - - - - - - -
02/01:00pm 15.0 NNW 35 47 996.8 - 0.2 - - - - - - -
02/12:30pm 14.2 NW 37 48 997.6 - 0.2 - - - - - - -
02/12:13pm 15.0 NNW 32 43 997.8 - 0.2 - - - - - - -
02/12:00pm 14.6 NW 36 44 998.2 - 0.2 Recent precip. - - - - - -
02/11:30am 13.2 NNW 33 45 999.1 - 0.0 - - - - - - -
02/11:00am 14.7 NW 35 45 999.2 - 0.0 - - - - - - -
02/10:41am 14.7 NW 32 42 999.6 - 0.0 - - - - - - -
02/10:30am 14.3 NW 35 43 999.7 - 0.0 - - - - - - -
02/10:00am 13.0 NW 33 45 1000.1 - 0.0 - - - - - - -
02/09:30am 13.0 NW 33 46 1000.4 - 0.0 - - - - - - -
02/09:27am 13.9 NW 31 41 1000.3 - 0.0 - - - - - - -
02/09:00am 13.8 NW 31 38 1000.8 - 14.0 - - - - - - -
02/08:30am 13.4 NW 33 40 1001.3 - 14.0 - - - - - - -
02/08:16am 13.3 NW 32 42 1001.4 - 14.0 - - - - - - -
02/08:00am 13.1 NW 32 41 1001.4 - 14.0 - - - - - - -
02/07:57am 13.0 NW 31 41 1001.4 - 14.0 - - - - - - -
02/07:30am 12.3 NW 27 34 1001.6 - 14.0 - - - - - - -
02/07:00am 11.9 NW 30 38 1001.8 - 14.0 Recent precip. - - - - - -
02/06:30am 11.1 NW 27 40 1002.3 - 13.8 - - - - - - -
02/06:00am 11.0 NW 29 40 1002.5 - 13.2 Recent precip. - - - - - -
02/05:54am 11.1 WNW 30 40 1002.4 - 13.2 - - - - - - -
02/05:30am 11.0 NW 25 32 1002.8 - 13.2 - - - - - - -
02/05:19am 10.8 WNW 27 37 1002.8 - 13.0 - - - - - - -
02/05:00am 11.9 WNW 29 35 1002.7 - 12.8 - - - - - - -
02/04:44am 11.8 WNW 27 37 1002.7 - 12.8 - - - - - - -
02/04:30am 12.4 WNW 28 34 1002.6 - 12.8 - - - - - - -
02/04:00am 11.9 WNW 29 37 1002.7 - 12.8 - - - - - - -
02/03:30am 11.6 WNW 29 36 1003.0 - 12.8 - - - - - - -
02/03:00am 10.7 WNW 29 37 1003.2 - 12.8 - - - - - - -
02/02:30am 11.9 WNW 32 40 1003.3 - 12.8 - - - - - - -
02/02:00am 11.8 WNW 30 38 1003.3 - 12.8 Recent precip. - - - - - -
02/01:30am 11.0 WNW 28 35 1003.3 - 12.8 - - - - - - -
02/01:00am 11.6 WNW 26 36 1003.3 - 12.6 - - - - - - -
02/12:59am 11.6 WNW 26 36 1003.4 - 12.6 - - - - - - -
02/12:30am 11.2 WNW 26 33 1003.5 - 12.6 - - - - - - -
02/12:00am 11.0 WNW 25 31 1003.8 - 12.6 - - - - - - -
 
Date/Time
EST
Temp

°C
Wind Pressure Rain
since 9am
mm
Weather Cloud Vis
km
Sea
Height
m
Swell
Dir
 
Speed
knots
Gust
knots
hPa Trend Height
m
Period
s
Dir
01/11:30pm 10.2 W 25 32 1004.2 - 12.6 - - - - - - -
01/11:00pm 10.9 W 23 31 1004.3 - 12.6 - - - - - - -
01/10:30pm 10.9 W 23 29 1004.5 - 12.6 - - - - - - -
01/10:00pm 10.6 W 25 31 1004.5 - 12.6 - - - - - - -
01/09:30pm 9.9 W 27 35 1004.4 - 12.6 - - - - - - -
01/09:05pm 10.4 WSW 22 32 1004.2 - 12.6 - - - - - - -
01/09:00pm 10.9 W 24 32 1004.1 - 12.6 - - - - - - -
01/08:30pm 10.3 WSW 19 26 1003.9 - 12.6 - - - - - - -
01/08:00pm 9.8 WSW 24 37 1003.6 - 12.6 Recent precip. - - - - - -
01/07:39pm 9.6 WSW 26 36 1003.3 - 12.4 - - - - - - -
01/07:30pm 9.8 W 31 38 1003.2 - 12.4 - - - - - - -
01/07:02pm 11.0 W 28 38 1002.6 - 12.4 - - - - - - -
01/07:00pm 11.1 W 30 38 1002.5 - 12.4 - - - - - - -
01/06:30pm 10.4 WSW 26 37 1002.0 - 12.4 - - - - - - -
01/06:00pm 10.8 WSW 29 40 1001.0 - 12.4 Rain - - - - - -
01/05:30pm 10.9 WSW 27 37 1000.0 - 12.2 - - - - - - -
01/05:00pm 10.6 WSW 27 37 998.8 - 11.4 Rain - - - - - -
01/04:30pm 10.7 WSW 27 40 997.6 - 10.8 - - - - - - -

Other Formats:

Comma delimited format used in spreadsheet applications
http://www.bom.gov.au/fwo/IDT60701/IDT60701.95961.axf

JavaScript Object Notation format (JSON) in row-major order
http://www.bom.gov.au/fwo/IDT60701/IDT60701.95961.json